Time;durP1;ratioP1;P1;durP2;ratioP2;P2;SDS_P1;SDS_P2;PMS_P1;PMS_P2;Temp;Humidity;BMP_temperature;BMP_pressure;BME280_temperature;BME280_humidity;BME280_pressure;Samples;Min_cycle;Max_cycle;Signal;HPM_P1;HPM_P2
2021/03/13 00:01:09;;;;;;;0.40;0.30;;;;;;;5.51;100.00;99576.16;5097007;28;20439;-76
2021/03/13 00:03:35;;;;;;;0.40;0.30;;;;;;;5.54;100.00;99571.00;5099940;28;20441;-76
2021/03/13 00:06:02;;;;;;;0.70;0.50;;;;;;;5.55;100.00;99567.22;5097249;28;20444;-76
2021/03/13 00:08:28;;;;;;;0.40;0.30;;;;;;;5.57;100.00;99569.63;5093791;28;20460;-75
2021/03/13 00:10:54;;;;;;;0.50;0.40;;;;;;;5.63;100.00;99578.41;5093824;28;20529;-76
2021/03/13 00:13:20;;;;;;;0.40;0.30;;;;;;;5.64;100.00;99575.44;5093907;28;20488;-76
2021/03/13 00:15:47;;;;;;;0.90;0.90;;;;;;;5.67;100.00;99582.13;5093560;28;20448;-76
2021/03/13 00:18:14;;;;;;;0.60;0.40;;;;;;;5.69;100.00;99578.03;5096382;28;20476;-76
2021/03/13 00:20:42;;;;;;;0.40;0.30;;;;;;;5.76;100.00;99577.66;5097400;28;20452;-76
2021/03/13 00:23:08;;;;;;;0.50;0.30;;;;;;;5.76;99.68;99577.66;5097706;28;20436;-77
2021/03/13 00:25:36;;;;;;;0.40;0.30;;;;;;;5.77;99.74;99574.69;5097720;28;20525;-76
2021/03/13 00:28:04;;;;;;;0.40;0.30;;;;;;;5.81;99.59;99582.94;5097448;28;20445;-76
2021/03/13 00:30:32;;;;;;;0.50;0.50;;;;;;;5.78;99.72;99581.63;5097254;28;20423;-76
2021/03/13 00:33:01;;;;;;;0.60;0.40;;;;;;;5.79;99.27;99571.69;5097878;28;20436;-76
2021/03/13 00:35:29;;;;;;;1.23;1.13;;;;;;;5.78;98.88;99573.56;5097625;28;20429;-76
2021/03/13 00:37:55;;;;;;;0.40;0.30;;;;;;;5.74;98.88;99569.09;5097488;28;20468;-76
2021/03/13 00:40:24;;;;;;;0.40;0.30;;;;;;;5.73;98.67;99565.59;5097358;28;20964;-76
2021/03/13 00:42:50;;;;;;;0.97;0.73;;;;;;;5.75;98.77;99576.03;5097173;28;20463;-76
2021/03/13 00:45:18;;;;;;;0.40;0.30;;;;;;;5.70;99.09;99576.94;5097056;28;20949;-76
2021/03/13 00:47:45;;;;;;;0.50;0.40;;;;;;;5.66;99.28;99561.69;5096542;28;20468;-76
2021/03/13 00:50:14;;;;;;;0.40;0.30;;;;;;;5.70;99.85;99573.44;5097012;28;20509;-76
2021/03/13 00:52:41;;;;;;;0.40;0.30;;;;;;;5.64;99.19;99569.25;5097306;28;20480;-76
2021/03/13 00:55:09;;;;;;;0.60;0.33;;;;;;;5.64;99.75;99570.06;5097087;28;20475;-76
2021/03/13 00:57:35;;;;;;;0.40;0.40;;;;;;;5.61;99.62;99567.16;5096394;28;20452;-76
2021/03/13 01:00:01;;;;;;;0.40;0.30;;;;;;;5.62;99.78;99572.22;5096792;28;20444;-76
2021/03/13 01:02:27;;;;;;;0.40;0.27;;;;;;;5.62;100.00;99568.75;5096774;28;20444;-76
2021/03/13 01:04:53;;;;;;;0.40;0.30;;;;;;;5.61;99.96;99575.22;5096991;28;20535;-76
2021/03/13 01:07:20;;;;;;;0.40;0.20;;;;;;;5.62;100.00;99582.16;5096459;28;20557;-76
2021/03/13 01:09:46;;;;;;;0.40;0.30;;;;;;;5.63;100.00;99576.53;5096660;28;20436;-76
2021/03/13 01:12:12;;;;;;;0.40;0.30;;;;;;;5.59;100.00;99566.66;5097100;28;20459;-75
2021/03/13 01:14:38;;;;;;;0.40;0.30;;;;;;;5.61;100.00;99567.94;5096667;28;20490;-76
2021/03/13 01:17:05;;;;;;;0.40;0.30;;;;;;;5.64;100.00;99575.44;5095889;28;20479;-76
2021/03/13 01:19:31;;;;;;;0.40;0.30;;;;;;;5.64;100.00;99572.75;5096192;28;20448;-76
2021/03/13 01:21:57;;;;;;;0.40;0.23;;;;;;;5.62;100.00;99561.47;5096468;28;20471;-76
2021/03/13 01:24:24;;;;;;;0.40;0.30;;;;;;;5.61;100.00;99565.25;5096420;28;20436;-75
2021/03/13 01:26:50;;;;;;;0.57;0.40;;;;;;;5.61;100.00;99556.41;5096123;28;20473;-76
2021/03/13 01:29:16;;;;;;;0.40;0.30;;;;;;;5.63;100.00;99560.41;5095725;28;20443;-76
2021/03/13 01:31:42;;;;;;;0.40;0.30;;;;;;;5.58;100.00;99557.81;5096119;28;20440;-75
2021/03/13 01:34:08;;;;;;;1.00;0.60;;;;;;;5.56;100.00;99558.06;5095887;28;20508;-76
2021/03/13 01:36:34;;;;;;;0.40;0.30;;;;;;;5.59;100.00;99562.09;5095381;28;21012;-75
2021/03/13 01:39:00;;;;;;;0.40;0.30;;;;;;;5.64;100.00;99558.50;5095972;28;20437;-76
2021/03/13 01:41:27;;;;;;;0.40;0.20;;;;;;;5.62;99.58;99553.41;5095927;28;20455;-76
2021/03/13 01:43:53;;;;;;;0.40;0.30;;;;;;;5.63;99.35;99552.34;5095971;28;20494;-75
2021/03/13 01:46:19;;;;;;;0.40;0.30;;;;;;;5.65;99.59;99558.22;5095589;28;20444;-75
2021/03/13 01:48:50;;;;;;;0.40;0.30;;;;;;;5.70;99.32;99563.50;5095599;28;20437;-76
2021/03/13 01:51:16;;;;;;;0.43;0.37;;;;;;;5.70;98.76;99555.44;5095794;28;20424;-75
2021/03/13 01:53:43;;;;;;;0.50;0.40;;;;;;;5.73;99.08;99552.16;5095662;28;20480;-76
2021/03/13 01:56:09;;;;;;;0.40;0.30;;;;;;;5.75;98.92;99554.56;5095341;28;20432;-76
2021/03/13 01:58:36;;;;;;;0.40;0.30;;;;;;;5.76;98.59;99548.91;5095603;28;20436;-75
2021/03/13 02:01:06;;;;;;;2.20;0.43;;;;;;;5.73;98.62;99546.00;5095587;28;20482;-76
2021/03/13 02:03:32;;;;;;;0.50;0.40;;;;;;;5.72;98.24;99550.59;5096081;28;20429;-75
2021/03/13 02:05:58;;;;;;;2.47;0.60;;;;;;;5.72;97.91;99550.59;5094912;28;20964;-76
2021/03/13 02:08:47;;;;;;;0.83;0.50;;;;;;;5.67;97.84;99553.34;5095295;28;20518;-76
2021/03/13 02:11:19;;;;;;;0.40;0.30;;;;;;;5.61;98.69;99559.09;5095512;28;20421;-76
2021/03/13 02:13:52;;;;;;;0.40;0.40;;;;;;;5.64;98.51;99553.94;5094822;28;21026;-76
2021/03/13 02:16:25;;;;;;;0.40;0.20;;;;;;;5.56;98.49;99557.28;5094800;28;20816;-76
2021/03/13 02:19:02;;;;;;;0.40;0.30;;;;;;;5.61;98.60;99556.41;5094865;28;20440;-76
2021/03/13 02:21:31;;;;;;;0.40;0.30;;;;;;;5.59;97.96;99548.66;5094810;28;20796;-75
2021/03/13 02:24:16;;;;;;;0.87;0.60;;;;;;;5.56;97.81;99554.59;5094973;28;20925;-76
2021/03/13 02:26:53;;;;;;;0.40;0.30;;;;;;;5.57;97.85;99551.59;5094880;28;20981;-75
2021/03/13 02:29:40;;;;;;;0.40;0.30;;;;;;;5.54;97.91;99548.75;5095098;28;20420;-75
2021/03/13 02:32:10;;;;;;;0.40;0.30;;;;;;;5.55;98.31;99550.31;5094729;28;20424;-75
2021/03/13 02:34:40;;;;;;;0.40;0.40;;;;;;;5.53;98.19;99552.50;5095056;28;20487;-75
2021/03/13 02:37:13;;;;;;;0.40;0.30;;;;;;;5.52;97.87;99548.22;5094795;28;20521;-76
2021/03/13 02:39:43;;;;;;;0.40;0.30;;;;;;;5.55;97.50;99558.38;5093750;28;20413;-76
2021/03/13 02:42:11;;;;;;;0.47;0.40;;;;;;;5.55;97.21;99545.75;5094676;28;20448;-76
2021/03/13 02:44:39;;;;;;;5.73;1.13;;;;;;;5.56;97.40;99543.84;5094790;28;20441;-76
2021/03/13 02:47:07;;;;;;;0.40;0.30;;;;;;;5.56;96.81;99541.97;5099562;28;20460;-77
2021/03/13 02:49:36;;;;;;;0.40;0.30;;;;;;;5.63;96.88;99543.50;5104880;28;20440;-76
2021/03/13 02:52:02;;;;;;;0.67;0.60;;;;;;;5.65;96.83;99543.97;5095101;28;20441;-76
2021/03/13 02:54:29;;;;;;;0.63;0.63;;;;;;;5.65;96.57;99544.78;5094750;28;20491;-76
2021/03/13 02:56:57;;;;;;;0.40;0.30;;;;;;;5.63;96.74;99552.34;5094306;28;20460;-76
2021/03/13 02:59:23;;;;;;;0.40;0.30;;;;;;;5.70;96.30;99552.75;5095648;28;20752;-78
2021/03/13 03:01:55;;;;;;;0.40;0.20;;;;;;;5.71;95.19;99546.31;5095795;28;20441;-78
2021/03/13 03:04:23;;;;;;;0.60;0.50;;;;;;;5.70;95.63;99544.69;5095987;28;20830;-78
2021/03/13 03:06:52;;;;;;;1.20;0.90;;;;;;;5.73;95.43;99546.00;5095278;28;20476;-78
2021/03/13 03:09:19;;;;;;;0.40;0.30;;;;;;;5.70;95.39;99547.38;5094995;28;20459;-77
2021/03/13 03:11:46;;;;;;;0.40;0.30;;;;;;;5.67;95.71;99545.31;5094716;28;20441;-77
2021/03/13 03:14:13;;;;;;;0.80;0.80;;;;;;;5.63;95.46;99544.28;5095814;28;20483;-78
2021/03/13 03:16:43;;;;;;;0.40;0.30;;;;;;;5.61;94.81;99549.13;5095752;28;20476;-78
2021/03/13 03:19:11;;;;;;;0.97;0.60;;;;;;;5.60;95.10;99552.13;5096545;28;20470;-78
2021/03/13 03:21:39;;;;;;;0.40;0.30;;;;;;;5.56;94.84;99552.72;5094900;28;20451;-77
2021/03/13 03:24:07;;;;;;;0.50;0.30;;;;;;;5.49;95.39;99556.84;5094334;28;20439;-77
2021/03/13 03:26:33;;;;;;;0.40;0.30;;;;;;;5.47;94.94;99542.94;5095018;28;20464;-77
2021/03/13 03:28:59;;;;;;;0.93;0.30;;;;;;;5.46;95.03;99542.13;5095398;28;20945;-78
2021/03/13 03:31:25;;;;;;;0.40;0.30;;;;;;;5.41;96.03;99541.44;5095694;28;20529;-77
2021/03/13 03:33:51;;;;;;;0.40;0.30;;;;;;;5.37;95.23;99541.19;5094968;28;20854;-77
2021/03/13 03:36:19;;;;;;;0.40;0.30;;;;;;;5.34;95.54;99539.09;5095166;28;20431;-77
2021/03/13 03:38:45;;;;;;;0.40;0.30;;;;;;;5.32;95.14;99535.91;5094790;28;20440;-78
2021/03/13 03:41:11;;;;;;;0.40;0.30;;;;;;;5.30;94.76;99532.72;5094705;28;20812;-76
2021/03/13 03:43:40;;;;;;;0.40;0.37;;;;;;;5.30;94.48;99522.75;5094896;28;20429;-76
2021/03/13 03:46:08;;;;;;;0.60;0.40;;;;;;;5.27;94.59;99518.00;5094998;28;20447;-77
2021/03/13 03:48:35;;;;;;;0.40;0.30;;;;;;;5.27;94.57;99518.00;5094276;28;20464;-77
2021/03/13 03:51:02;;;;;;;0.60;0.43;;;;;;;5.29;94.57;99515.00;5093776;28;20424;-77
2021/03/13 03:53:34;;;;;;;0.40;0.30;;;;;;;5.26;95.35;99526.31;5095151;28;20530;-77
2021/03/13 03:56:02;;;;;;;0.40;0.30;;;;;;;5.28;95.20;99530.31;5095496;28;20819;-77
2021/03/13 03:58:33;;;;;;;0.40;0.30;;;;;;;5.27;95.31;99523.38;5095037;28;20460;-77
2021/03/13 04:01:02;;;;;;;0.40;0.30;;;;;;;5.26;95.15;99524.44;5094898;28;20779;-77
2021/03/13 04:03:29;;;;;;;0.40;0.30;;;;;;;5.31;94.47;99519.00;5094976;28;20444;-78
2021/03/13 04:05:56;;;;;;;0.50;0.40;;;;;;;5.36;93.71;99530.75;5095084;28;20444;-77
2021/03/13 04:08:23;;;;;;;0.60;0.57;;;;;;;5.31;93.37;99524.38;5095093;28;20468;-77
2021/03/13 04:10:51;;;;;;;1.43;0.40;;;;;;;5.31;93.18;99516.31;5094954;28;20452;-77
2021/03/13 04:13:19;;;;;;;0.40;0.30;;;;;;;5.29;93.38;99517.69;5095312;28;20425;-77
2021/03/13 04:15:47;;;;;;;0.40;0.30;;;;;;;5.27;93.36;99522.56;5093953;28;20494;-77
2021/03/13 04:18:13;;;;;;;0.50;0.50;;;;;;;5.24;93.50;99513.19;5093499;28;20468;-77
2021/03/13 04:20:40;;;;;;;0.40;0.30;;;;;;;5.25;93.90;99504.06;5094202;28;20843;-77
2021/03/13 04:23:08;;;;;;;0.40;0.30;;;;;;;5.29;93.23;99510.44;5094389;28;20470;-77
2021/03/13 04:25:36;;;;;;;0.40;0.30;;;;;;;5.30;92.42;99512.03;5093890;28;20860;-77
2021/03/13 04:28:04;;;;;;;0.40;0.30;;;;;;;5.34;91.96;99511.44;5093906;28;20464;-77
2021/03/13 04:30:31;;;;;;;0.40;0.30;;;;;;;5.38;92.37;99512.47;5093665;28;20448;-77
2021/03/13 04:32:59;;;;;;;0.40;0.30;;;;;;;5.37;92.80;99510.88;5094639;28;20448;-78
2021/03/13 04:35:27;;;;;;;0.67;0.57;;;;;;;5.37;92.49;99514.34;5094598;28;21000;-77
2021/03/13 04:37:54;;;;;;;0.40;0.30;;;;;;;5.45;92.02;99504.84;5094286;28;20969;-78
2021/03/13 04:40:22;;;;;;;0.40;0.40;;;;;;;5.45;91.97;99502.16;5094379;28;20448;-77
2021/03/13 04:42:48;;;;;;;1.60;1.50;;;;;;;5.49;92.45;99508.50;5094688;28;20459;-78
2021/03/13 04:45:17;;;;;;;0.70;0.40;;;;;;;5.56;91.96;99504.38;5094210;28;20425;-78
2021/03/13 04:47:45;;;;;;;0.40;0.30;;;;;;;5.61;91.99;99500.00;5094385;28;20452;-78
2021/03/13 04:50:13;;;;;;;0.40;0.30;;;;;;;5.68;90.53;99501.22;5095103;28;20444;-78
2021/03/13 04:52:39;;;;;;;0.40;0.30;;;;;;;5.70;90.78;99493.66;5094764;28;20429;-78
2021/03/13 04:55:07;;;;;;;0.40;0.30;;;;;;;5.74;90.11;99493.84;5094146;28;20479;-77
2021/03/13 04:57:33;;;;;;;0.40;0.30;;;;;;;5.73;90.19;99489.59;5094301;28;20448;-78
2021/03/13 04:59:59;;;;;;;0.40;0.30;;;;;;;5.78;90.76;99490.28;5094478;28;20509;-77
2021/03/13 05:02:26;;;;;;;0.50;0.40;;;;;;;5.79;89.84;99486.50;5094105;28;20453;-77
2021/03/13 05:04:52;;;;;;;0.40;0.30;;;;;;;5.78;90.42;99474.16;5098070;28;20447;-77
2021/03/13 05:07:18;;;;;;;0.67;0.67;;;;;;;5.81;90.36;99473.59;5097400;28;20464;-77
2021/03/13 05:10:00;;;;;;;;;;;;;;;;;;;;;
2021/03/13 05:12:34;;;;;;;0.40;0.23;;;;;;;5.85;90.75;99473.00;5097801;28;20428;-77
2021/03/13 05:15:00;;;;;;;0.40;0.30;;;;;;;5.88;90.31;99475.06;5097536;28;20491;-78
2021/03/13 05:17:27;;;;;;;0.50;0.40;;;;;;;5.83;90.92;99466.00;5096946;22;20974;-68
2021/03/13 05:19:53;;;;;;;0.40;0.30;;;;;;;5.79;91.69;99465.00;5075566;28;20464;-69
2021/03/13 05:22:19;;;;;;;0.40;0.30;;;;;;;5.80;90.47;99472.00;5075643;28;20817;-67
2021/03/13 05:24:45;;;;;;;0.40;0.20;;;;;;;5.80;90.95;99461.25;5076876;28;20453;-67
2021/03/13 05:27:11;;;;;;;1.53;0.83;;;;;;;5.82;90.52;99461.72;5075484;28;20441;-67
2021/03/13 05:29:36;;;;;;;0.40;0.30;;;;;;;5.85;90.28;99463.03;5075068;28;21005;-68
2021/03/13 05:32:03;;;;;;;0.50;0.40;;;;;;;5.83;91.13;99463.31;5075218;28;20437;-68
2021/03/13 05:34:30;;;;;;;0.80;0.40;;;;;;;5.83;90.54;99455.25;5075356;28;20535;-68
2021/03/13 05:36:56;;;;;;;0.40;0.30;;;;;;;5.90;90.09;99446.03;5075043;28;20445;-67
2021/03/13 05:39:22;;;;;;;0.40;0.30;;;;;;;5.91;90.50;99463.72;5075249;28;20452;-68
2021/03/13 05:41:48;;;;;;;0.40;0.30;;;;;;;5.93;90.00;99454.31;5075221;28;20441;-68
2021/03/13 05:44:14;;;;;;;0.40;0.40;;;;;;;5.96;89.54;99453.72;5075238;28;20805;-67
2021/03/13 05:46:44;;;;;;;0.40;0.30;;;;;;;6.02;90.13;99446.34;5075155;28;20491;-68
2021/03/13 05:49:11;;;;;;;0.40;0.30;;;;;;;6.05;89.59;99445.75;5075403;28;20464;-68
2021/03/13 05:51:42;;;;;;;1.10;0.40;;;;;;;6.08;89.80;99450.53;5075063;28;20448;-67
2021/03/13 05:54:08;;;;;;;0.40;0.30;;;;;;;6.12;89.16;99443.47;5074395;28;20473;-68
2021/03/13 05:56:35;;;;;;;0.40;0.30;;;;;;;6.16;89.06;99435.59;5074608;28;20446;-68
2021/03/13 05:59:02;;;;;;;0.40;0.30;;;;;;;6.20;89.34;99436.59;5074927;28;20449;-67
2021/03/13 06:01:29;;;;;;;0.40;0.30;;;;;;;6.19;89.42;99441.16;5077766;28;20484;-67
2021/03/13 06:03:56;;;;;;;0.50;0.30;;;;;;;6.20;89.61;99442.78;5074857;28;20441;-67
2021/03/13 06:06:23;;;;;;;0.50;0.50;;;;;;;6.25;88.99;99433.81;5074801;28;20441;-68
2021/03/13 06:08:51;;;;;;;0.40;0.30;;;;;;;6.31;89.19;99428.00;5074708;28;20437;-68
2021/03/13 06:11:18;;;;;;;0.60;0.40;;;;;;;6.36;89.26;99429.00;5074720;28;20465;-68
2021/03/13 06:13:44;;;;;;;0.40;0.30;;;;;;;6.36;88.94;99421.72;5074449;28;20481;-68
2021/03/13 06:16:10;;;;;;;0.40;0.20;;;;;;;6.36;88.05;99419.03;5074657;28;20437;-67
2021/03/13 06:18:52;;;;;;;0.40;0.30;;;;;;;6.45;89.05;99416.44;5074129;28;20460;-68
2021/03/13 06:21:23;;;;;;;0.60;0.40;;;;;;;6.46;89.16;99407.25;5074125;28;21049;-67
2021/03/13 06:23:55;;;;;;;0.40;0.30;;;;;;;6.49;89.08;99412.03;5074450;28;20438;-67
2021/03/13 06:26:21;;;;;;;2.57;1.83;;;;;;;6.51;88.19;99412.53;5073731;28;20445;-68
2021/03/13 06:28:47;;;;;;;0.40;0.30;;;;;;;6.54;88.01;99406.53;5074369;28;20525;-67
2021/03/13 06:31:14;;;;;;;0.40;0.30;;;;;;;6.56;87.81;99401.66;5073940;28;20462;-67
2021/03/13 06:33:39;;;;;;;0.40;0.30;;;;;;;6.56;88.19;99394.38;5074199;28;20485;-67
2021/03/13 06:36:08;;;;;;;0.60;0.40;;;;;;;6.66;88.05;99400.63;5074141;28;20437;-67
2021/03/13 06:38:35;;;;;;;0.97;0.87;;;;;;;6.66;87.71;99396.03;5074127;28;20445;-67
2021/03/13 06:41:11;;;;;;;0.40;0.30;;;;;;;6.71;87.83;99395.13;5074060;28;20465;-70
2021/03/13 06:43:39;;;;;;;0.47;0.40;;;;;;;6.75;87.78;99391.53;5073699;28;20447;-69
2021/03/13 06:46:07;;;;;;;0.40;0.30;;;;;;;6.76;87.69;99393.13;5074079;28;20559;-70
2021/03/13 06:48:37;;;;;;;0.40;0.30;;;;;;;6.77;86.98;99383.97;5073280;28;20467;-68
2021/03/13 06:51:27;;;;;;;0.40;0.30;;;;;;;6.83;87.47;99385.41;5073904;28;20461;-69
2021/03/13 06:54:02;;;;;;;0.40;0.33;;;;;;;6.85;86.56;99387.78;5073876;28;20492;-69
2021/03/13 06:56:30;;;;;;;0.50;0.40;;;;;;;6.86;86.09;99377.81;5073286;28;20467;-68
2021/03/13 06:58:56;;;;;;;0.40;0.27;;;;;;;6.89;85.64;99383.41;5073788;28;20456;-68
2021/03/13 07:01:27;;;;;;;0.40;0.30;;;;;;;6.93;85.95;99383.59;5073814;28;20471;-67
2021/03/13 07:03:54;;;;;;;0.40;0.30;;;;;;;6.94;85.58;99372.50;5073967;28;20958;-68
2021/03/13 07:06:20;;;;;;;0.40;0.30;;;;;;;6.97;85.17;99376.50;5073621;28;20791;-68
2021/03/13 07:08:47;;;;;;;0.40;0.30;;;;;;;6.97;86.41;99376.50;5073318;28;20973;-67
2021/03/13 07:11:16;;;;;;;1.23;0.60;;;;;;;7.02;86.60;99374.47;5073566;28;20465;-69
2021/03/13 07:13:44;;;;;;;0.40;0.30;;;;;;;6.96;86.14;99367.63;5073472;28;20575;-68
2021/03/13 07:16:24;;;;;;;0.40;0.30;;;;;;;7.01;86.97;99374.78;5073505;28;20456;-68
2021/03/13 07:18:50;;;;;;;0.47;0.30;;;;;;;6.96;87.29;99366.84;5073107;28;20472;-67
2021/03/13 07:21:18;;;;;;;0.60;0.40;;;;;;;6.94;88.45;99360.94;5073047;28;20515;-67
2021/03/13 07:23:49;;;;;;;0.40;0.20;;;;;;;6.92;88.70;99361.25;5073371;28;21015;-70
2021/03/13 07:26:16;;;;;;;0.40;0.30;;;;;;;6.94;88.97;99359.03;5072966;28;20429;-67
2021/03/13 07:28:44;;;;;;;0.50;0.40;;;;;;;7.01;89.47;99362.09;5072678;28;20460;-67
2021/03/13 07:31:11;;;;;;;0.50;0.40;;;;;;;7.01;89.69;99353.25;5072907;28;20879;-67
2021/03/13 07:33:38;;;;;;;0.87;0.40;;;;;;;7.08;90.04;99356.28;5073201;28;20441;-67
2021/03/13 07:36:09;;;;;;;0.40;0.30;;;;;;;7.05;90.88;99349.63;5073100;28;20452;-68
2021/03/13 07:38:39;;;;;;;1.87;0.57;;;;;;;7.12;90.75;99351.06;5073177;28;20432;-67
2021/03/13 07:41:09;;;;;;;0.40;0.20;;;;;;;7.11;91.24;99349.50;5073118;28;20464;-68
2021/03/13 07:43:35;;;;;;;0.80;0.80;;;;;;;7.12;91.73;99343.78;5073148;28;20442;-68
2021/03/13 07:46:02;;;;;;;0.40;0.40;;;;;;;7.14;91.63;99346.97;5073086;28;20473;-68
2021/03/13 07:48:28;;;;;;;0.40;0.27;;;;;;;7.15;91.39;99347.78;5073009;28;20440;-68
2021/03/13 07:50:55;;;;;;;0.57;0.40;;;;;;;7.09;92.27;99339.03;5073044;28;20485;-68
2021/03/13 07:53:22;;;;;;;1.20;1.10;;;;;;;6.98;93.53;99337.69;5072809;28;20961;-68
2021/03/13 07:55:51;;;;;;;0.67;0.50;;;;;;;6.93;93.75;99329.75;5072886;28;20491;-67
2021/03/13 07:58:19;;;;;;;1.03;0.93;;;;;;;6.95;94.02;99322.16;5072899;28;20445;-68
2021/03/13 08:00:47;;;;;;;0.40;0.40;;;;;;;6.98;95.14;99313.47;5072856;28;20534;-67
2021/03/13 08:03:40;;;;;;;0.40;0.30;;;;;;;6.91;95.14;99305.84;5072907;28;20819;-68
2021/03/13 08:06:08;;;;;;;0.40;0.37;;;;;;;6.94;95.33;99307.09;5072670;28;20846;-68
2021/03/13 08:08:35;;;;;;;0.40;0.20;;;;;;;6.98;95.89;99310.78;5072836;28;20870;-67
2021/03/13 08:11:02;;;;;;;0.40;0.30;;;;;;;6.92;95.86;99301.25;5072556;28;20469;-67
2021/03/13 08:13:48;;;;;;;0.40;0.30;;;;;;;6.85;96.03;99296.28;5072668;28;20457;-68
2021/03/13 08:16:18;;;;;;;1.27;0.60;;;;;;;6.81;97.02;99293.41;5072813;28;20473;-68
2021/03/13 08:18:46;;;;;;;0.50;0.33;;;;;;;6.75;98.60;99283.88;5072463;28;20469;-68
2021/03/13 08:21:42;;;;;;;0.40;0.30;;;;;;;6.73;98.99;99272.66;5072714;28;20457;-67
2021/03/13 08:24:08;;;;;;;1.70;1.13;;;;;;;6.68;99.59;99280.81;5063761;28;20481;-67
2021/03/13 08:27:08;;;;;;;0.43;0.33;;;;;;;6.72;99.63;99259.50;5072891;28;20448;-68
2021/03/13 08:29:55;;;;;;;0.80;0.50;;;;;;;6.70;99.34;99251.72;5072964;28;20799;-68
2021/03/13 08:33:04;;;;;;;1.47;0.40;;;;;;;6.69;100.00;99244.78;5072788;28;20437;-68
2021/03/13 08:35:50;;;;;;;0.40;0.30;;;;;;;6.69;99.69;99239.38;5072600;28;20461;-69
2021/03/13 08:38:21;;;;;;;0.40;0.30;;;;;;;6.62;100.00;99228.25;5074047;28;20425;-68
2021/03/13 08:40:50;;;;;;;0.40;0.30;;;;;;;6.61;100.00;99229.38;5076342;28;20473;-68
2021/03/13 08:43:41;;;;;;;0.50;0.40;;;;;;;6.64;100.00;99218.00;5076360;28;20449;-68
2021/03/13 08:46:42;;;;;;;0.60;0.47;;;;;;;6.62;100.00;99214.81;5076357;28;20445;-67
2021/03/13 08:49:08;;;;;;;0.40;0.30;;;;;;;6.60;100.00;99205.44;5073905;28;20890;-67
2021/03/13 08:51:36;;;;;;;0.40;0.30;;;;;;;6.58;100.00;99195.00;5076094;28;20461;-67
2021/03/13 08:54:02;;;;;;;1.50;1.40;;;;;;;6.56;100.00;99194.53;5076095;28;20476;-68
2021/03/13 08:56:46;;;;;;;0.40;0.30;;;;;;;6.54;100.00;99184.06;5076094;28;20441;-68
2021/03/13 08:59:16;;;;;;;1.07;1.07;;;;;;;6.57;100.00;99172.69;5076140;28;20473;-68
2021/03/13 09:01:45;;;;;;;0.70;0.70;;;;;;;6.61;100.00;99166.69;5075767;28;20926;-68
2021/03/13 09:04:11;;;;;;;0.97;0.60;;;;;;;6.60;100.00;99165.91;5076080;28;20437;-68
2021/03/13 09:06:40;;;;;;;0.93;0.93;;;;;;;6.62;100.00;99157.53;5076096;28;20437;-67
2021/03/13 09:09:15;;;;;;;0.60;0.60;;;;;;;6.65;100.00;99156.91;5075789;28;20926;-68
2021/03/13 09:11:41;;;;;;;0.40;0.30;;;;;;;6.61;100.00;99145.97;5076074;28;20429;-67
2021/03/13 09:14:08;;;;;;;0.50;0.40;;;;;;;6.56;100.00;99138.84;5075936;28;20477;-67
2021/03/13 09:16:36;;;;;;;0.60;0.60;;;;;;;6.51;100.00;99130.13;5075572;28;20442;-67
2021/03/13 09:19:03;;;;;;;0.67;0.40;;;;;;;6.52;100.00;99129.00;5075488;28;20452;-66
2021/03/13 09:21:45;;;;;;;0.80;0.40;;;;;;;6.49;100.00;99116.94;5075639;28;20467;-67
2021/03/13 09:24:13;;;;;;;1.93;0.50;;;;;;;6.52;100.00;99112.88;5075791;28;20417;-68
2021/03/13 09:26:39;;;;;;;1.47;0.40;;;;;;;6.49;100.00;99090.06;5075599;28;20476;-67
2021/03/13 09:29:06;;;;;;;0.40;0.30;;;;;;;6.48;100.00;99085.78;5075638;28;20437;-66
2021/03/13 09:31:32;;;;;;;0.83;0.50;;;;;;;6.53;100.00;99072.19;5075536;28;20461;-68
2021/03/13 09:34:14;;;;;;;0.40;0.30;;;;;;;6.58;100.00;99061.28;5075459;28;20484;-67
2021/03/13 09:36:40;;;;;;;0.40;0.30;;;;;;;6.62;100.00;99057.97;5075433;28;20445;-67
2021/03/13 09:39:07;;;;;;;0.40;0.30;;;;;;;6.67;100.00;99047.06;5075391;28;20452;-67
2021/03/13 09:41:33;;;;;;;0.40;0.30;;;;;;;6.68;100.00;99041.38;5075085;28;20840;-67
2021/03/13 09:44:00;;;;;;;0.40;0.30;;;;;;;6.69;100.00;99036.81;5075366;28;20436;-67
2021/03/13 09:46:29;;;;;;;0.40;0.30;;;;;;;6.74;100.00;99034.75;5075238;28;20820;-67
2021/03/13 09:48:55;;;;;;;0.53;0.47;;;;;;;6.80;100.00;99025.41;5074493;28;20991;-66
2021/03/13 09:51:21;;;;;;;0.73;0.73;;;;;;;6.88;100.00;99018.47;5075201;28;20518;-67
2021/03/13 09:53:47;;;;;;;0.40;0.30;;;;;;;6.94;100.00;99025.28;5075132;28;20452;-67
2021/03/13 09:56:14;;;;;;;0.40;0.30;;;;;;;6.95;100.00;99020.69;5075153;28;20437;-67
2021/03/13 09:58:40;;;;;;;3.43;2.67;;;;;;;7.00;100.00;99023.25;5074848;28;20947;-67
2021/03/13 10:01:06;;;;;;;0.40;0.30;;;;;;;7.07;100.00;99016.25;5074953;28;20491;-67
2021/03/13 10:03:32;;;;;;;0.80;0.80;;;;;;;7.16;100.00;99016.25;5075014;28;20487;-67
2021/03/13 10:05:59;;;;;;;0.93;0.77;;;;;;;7.17;100.00;98995.50;5075029;28;20437;-68
2021/03/13 10:08:35;;;;;;;0.40;0.30;;;;;;;7.18;100.00;98987.13;5074883;28;20468;-67
2021/03/13 10:11:04;;;;;;;0.40;0.30;;;;;;;7.22;100.00;98977.31;5074856;28;20456;-66
2021/03/13 10:13:31;;;;;;;0.53;0.53;;;;;;;7.30;100.00;98973.00;5074725;28;20862;-66
2021/03/13 10:15:57;;;;;;;0.40;0.30;;;;;;;7.37;100.00;98967.94;5074328;28;20482;-69
2021/03/13 10:18:27;;;;;;;0.50;0.47;;;;;;;7.47;100.00;98966.81;5074736;28;20460;-70
2021/03/13 10:20:54;;;;;;;0.40;0.27;;;;;;;7.49;100.00;98960.00;5074695;28;20473;-70
2021/03/13 10:23:23;;;;;;;0.50;0.40;;;;;;;7.49;100.00;98959.22;5074934;28;20510;-69
2021/03/13 10:25:56;;;;;;;0.40;0.30;;;;;;;7.57;100.00;98956.50;5074932;28;20489;-69
2021/03/13 10:28:27;;;;;;;0.83;0.83;;;;;;;7.59;100.00;98951.56;5074993;28;20934;-70
2021/03/13 10:31:06;;;;;;;0.40;0.30;;;;;;;7.61;100.00;98945.06;5074666;28;20461;-71
2021/03/13 10:33:33;;;;;;;0.57;0.57;;;;;;;7.65;100.00;98944.09;5074613;28;20450;-70
2021/03/13 10:35:59;;;;;;;0.50;0.40;;;;;;;7.78;100.00;98939.63;5074532;28;20931;-71
2021/03/13 10:38:26;;;;;;;0.40;0.30;;;;;;;7.89;100.00;98926.59;5074293;28;20460;-72
2021/03/13 10:40:53;;;;;;;0.40;0.30;;;;;;;7.93;100.00;98924.81;5074613;28;20472;-70
2021/03/13 10:43:31;;;;;;;0.40;0.27;;;;;;;8.04;100.00;98923.34;5074883;28;20449;-69
2021/03/13 10:46:16;;;;;;;0.40;0.30;;;;;;;8.06;100.00;98916.50;5074316;28;20422;-71
2021/03/13 10:49:01;;;;;;;0.40;0.30;;;;;;;8.07;100.00;98903.81;5074274;28;20433;-70
2021/03/13 10:51:29;;;;;;;1.17;0.30;;;;;;;8.08;100.00;98905.38;5074090;28;20457;-72
2021/03/13 10:53:56;;;;;;;0.77;0.77;;;;;;;8.06;100.00;98902.25;5074301;28;20441;-69
2021/03/13 10:56:23;;;;;;;0.40;0.30;;;;;;;8.09;100.00;98896.97;5074326;28;20456;-72
2021/03/13 10:58:50;;;;;;;0.40;0.30;;;;;;;8.13;100.00;98893.63;5074225;28;20464;-69
2021/03/13 11:01:18;;;;;;;0.40;0.30;;;;;;;8.13;100.00;98888.22;5073686;28;20468;-72
2021/03/13 11:03:46;;;;;;;0.40;0.30;;;;;;;8.11;100.00;98872.38;5074140;28;20449;-71
2021/03/13 11:06:13;;;;;;;0.40;0.30;;;;;;;8.13;100.00;98885.53;5073863;28;20946;-71
2021/03/13 11:08:39;;;;;;;1.13;0.50;;;;;;;8.14;100.00;98881.72;5073904;28;20430;-69
2021/03/13 11:11:05;;;;;;;0.40;0.30;;;;;;;8.21;100.00;98877.41;5073607;28;20465;-68
2021/03/13 11:13:31;;;;;;;0.50;0.40;;;;;;;8.26;100.00;98868.31;5073880;28;20453;-69
2021/03/13 11:15:57;;;;;;;0.73;0.73;;;;;;;8.36;100.00;98867.91;5074211;28;20485;-71
2021/03/13 11:18:24;;;;;;;0.60;0.50;;;;;;;8.40;99.65;98874.28;5073913;28;20464;-71
2021/03/13 11:20:50;;;;;;;0.80;0.40;;;;;;;8.50;100.00;98862.28;5073872;28;20470;-68
2021/03/13 11:23:17;;;;;;;0.50;0.40;;;;;;;8.56;99.06;98856.38;5073954;28;20863;-72
2021/03/13 11:25:43;;;;;;;0.90;0.90;;;;;;;8.60;99.30;98851.13;5073903;28;20437;-71
2021/03/13 11:28:09;;;;;;;0.40;0.30;;;;;;;8.53;98.88;98840.84;5074151;28;20442;-71
2021/03/13 11:30:36;;;;;;;0.50;0.30;;;;;;;8.66;98.77;98833.59;5073723;28;20510;-70
2021/03/13 11:33:02;;;;;;;0.60;0.60;;;;;;;8.78;98.66;98830.94;5073488;28;21015;-71
2021/03/13 11:35:29;;;;;;;1.60;0.33;;;;;;;8.93;98.70;98826.81;5073515;28;20477;-71
2021/03/13 11:37:56;;;;;;;0.50;0.43;;;;;;;9.07;95.53;98823.81;5073956;28;20441;-70
2021/03/13 11:40:23;;;;;;;0.40;0.40;;;;;;;9.27;95.70;98824.88;5073408;28;20464;-69
2021/03/13 11:42:51;;;;;;;0.40;0.30;;;;;;;9.46;93.39;98806.22;5073616;28;20449;-71
2021/03/13 11:45:18;;;;;;;0.40;0.30;;;;;;;9.59;93.60;98804.31;5073832;28;20441;-71
2021/03/13 11:47:44;;;;;;;0.40;0.30;;;;;;;9.63;91.61;98807.91;5073656;28;20898;-70
2021/03/13 11:50:13;;;;;;;2.33;0.40;;;;;;;9.72;90.43;98800.47;5073438;28;21063;-69